Terminal Aerodrome Forecast
Issued by NWS

Home | Current Version | Previous Version | Text Only | Print | Product List | Glossary On
Versions: 1 2 3 4 5 6 7 8 9 10 11 12 13 14 15 16 17 18 19 20 21
000
FTUS46 KSGX 021720
TAFCRQ
TAF
KCRQ 021720Z 0218/0318 00000KT P6SM OVC012
     FM022100 24009KT P6SM SCT016
     FM030300 VRB05KT P6SM OVC010
     FM031100 00000KT 6SM BR OVC008
     FM031600 24004KT P6SM OVC010=

USA.gov is the U.S. government's official web portal to all federal, state and local government web resources and services.